Terminal Aerodrome Forecast
Issued by NWS

Home | Current Version | Previous Version | Text Only | Print | Product List | Glossary On
Versions: 1 2 3 4 5 6 7 8 9 10 11 12 13 14 15 16 17 18
000
FTUS41 KPBZ 061138
TAFHLG
TAF
KHLG 061138Z 0612/0712 00000KT P6SM BKN100
     FM061800 19006KT 4SM -SHRA BKN025
     FM062200 21005KT P6SM BKN040=

USA.gov is the U.S. government's official web portal to all federal, state and local government web resources and services.